sensor_id;sensor_type;location;lat;lon;timestamp;pressure;altitude;pressure_sealevel;temperature;humidity
56713;BME280;42589;45.536;9.032;2023-05-09T00:00:46;100000.72;;;45.88;14.15
56713;BME280;42589;45.536;9.032;2023-05-09T00:03:47;100004.56;;;43.44;15.89
56713;BME280;42589;45.536;9.032;2023-05-09T00:06:47;100007.66;;;44.24;15.71
56713;BME280;42589;45.536;9.032;2023-05-09T00:09:48;99999.47;;;45.14;15.17
56713;BME280;42589;45.536;9.032;2023-05-09T00:12:49;100000.19;;;45.42;14.54
56713;BME280;42589;45.536;9.032;2023-05-09T00:15:50;99999.88;;;45.16;14.84
56713;BME280;42589;45.536;9.032;2023-05-09T00:18:53;99983.69;;;45.74;14.47
56713;BME280;42589;45.536;9.032;2023-05-09T00:21:54;99990.31;;;46.37;14.08
56713;BME280;42589;45.536;9.032;2023-05-09T00:24:55;99978.91;;;45.74;14.33
56713;BME280;42589;45.536;9.032;2023-05-09T00:27:56;99979.97;;;46.00;14.39
56713;BME280;42589;45.536;9.032;2023-05-09T00:30:57;99972.28;;;46.38;14.14
56713;BME280;42589;45.536;9.032;2023-05-09T00:33:58;99971.88;;;44.90;14.70
56713;BME280;42589;45.536;9.032;2023-05-09T00:36:59;99966.50;;;44.78;15.06
56713;BME280;42589;45.536;9.032;2023-05-09T00:39:59;99960.75;;;42.94;17.01
56713;BME280;42589;45.536;9.032;2023-05-09T00:43:00;99970.84;;;43.99;16.12
56713;BME280;42589;45.536;9.032;2023-05-09T00:46:01;99963.06;;;44.35;15.49
56713;BME280;42589;45.536;9.032;2023-05-09T00:49:02;99965.44;;;45.20;15.19
56713;BME280;42589;45.536;9.032;2023-05-09T00:52:04;99959.25;;;45.37;14.95
56713;BME280;42589;45.536;9.032;2023-05-09T00:55:05;99969.13;;;46.02;14.88
56713;BME280;42589;45.536;9.032;2023-05-09T00:58:07;99967.50;;;45.56;15.16
56713;BME280;42589;45.536;9.032;2023-05-09T01:01:08;99957.81;;;44.33;15.55
56713;BME280;42589;45.536;9.032;2023-05-09T01:04:09;99959.75;;;43.83;16.38
56713;BME280;42589;45.536;9.032;2023-05-09T01:07:34;99966.00;;;46.11;14.95
56713;BME280;42589;45.536;9.032;2023-05-09T01:11:12;99964.81;;;45.33;15.51
56713;BME280;42589;45.536;9.032;2023-05-09T01:17:58;99966.69;;;46.45;14.33
56713;BME280;42589;45.536;9.032;2023-05-09T01:21:03;99965.53;;;46.01;15.04
56713;BME280;42589;45.536;9.032;2023-05-09T01:27:21;99971.84;;;46.36;14.78
56713;BME280;42589;45.536;9.032;2023-05-09T01:30:24;99969.25;;;46.68;14.40
56713;BME280;42589;45.536;9.032;2023-05-09T01:33:26;99963.31;;;46.87;14.25
56713;BME280;42589;45.536;9.032;2023-05-09T01:36:31;99965.66;;;46.71;14.25
56713;BME280;42589;45.536;9.032;2023-05-09T01:39:55;99967.03;;;46.40;14.73
56713;BME280;42589;45.536;9.032;2023-05-09T01:43:04;99967.00;;;46.98;14.27
56713;BME280;42589;45.536;9.032;2023-05-09T01:46:06;99961.44;;;45.54;14.90
56713;BME280;42589;45.536;9.032;2023-05-09T01:49:09;99962.47;;;46.21;14.54
56713;BME280;42589;45.536;9.032;2023-05-09T01:52:14;99952.03;;;46.76;14.45
56713;BME280;42589;45.536;9.032;2023-05-09T01:55:16;99948.09;;;46.95;14.16
56713;BME280;42589;45.536;9.032;2023-05-09T01:58:20;99951.28;;;46.87;13.98
56713;BME280;42589;45.536;9.032;2023-05-09T02:01:22;99950.38;;;46.68;14.38
56713;BME280;42589;45.536;9.032;2023-05-09T02:04:23;99953.66;;;46.81;14.17
56713;BME280;42589;45.536;9.032;2023-05-09T02:07:25;99950.19;;;46.43;14.31
56713;BME280;42589;45.536;9.032;2023-05-09T02:10:28;99944.50;;;45.84;14.91
56713;BME280;42589;45.536;9.032;2023-05-09T02:13:29;99951.44;;;45.53;14.89
56713;BME280;42589;45.536;9.032;2023-05-09T02:16:29;99939.22;;;44.75;15.49
56713;BME280;42589;45.536;9.032;2023-05-09T02:19:32;99944.22;;;46.48;14.25
56713;BME280;42589;45.536;9.032;2023-05-09T02:22:33;99939.25;;;45.08;14.84
56713;BME280;42589;45.536;9.032;2023-05-09T02:25:34;99936.94;;;44.54;15.44
56713;BME280;42589;45.536;9.032;2023-05-09T02:28:35;99943.78;;;45.91;14.68
56713;BME280;42589;45.536;9.032;2023-05-09T02:31:39;99949.13;;;44.95;15.54
56713;BME280;42589;45.536;9.032;2023-05-09T02:34:42;99945.59;;;44.45;15.59
56713;BME280;42589;45.536;9.032;2023-05-09T02:37:44;99941.78;;;45.51;14.96
56713;BME280;42589;45.536;9.032;2023-05-09T02:40:46;99947.84;;;46.52;14.06
56713;BME280;42589;45.536;9.032;2023-05-09T02:43:47;99946.97;;;45.90;14.67
56713;BME280;42589;45.536;9.032;2023-05-09T02:46:47;99945.91;;;44.97;15.59
56713;BME280;42589;45.536;9.032;2023-05-09T02:49:48;99937.56;;;44.43;15.51
56713;BME280;42589;45.536;9.032;2023-05-09T02:52:49;99928.03;;;45.08;15.38
56713;BME280;42589;45.536;9.032;2023-05-09T02:55:50;99937.50;;;43.90;16.15
56713;BME280;42589;45.536;9.032;2023-05-09T02:58:51;99927.03;;;42.67;17.54
56713;BME280;42589;45.536;9.032;2023-05-09T03:01:52;99938.28;;;45.24;15.47
56713;BME280;42589;45.536;9.032;2023-05-09T03:04:52;99938.41;;;45.04;15.45
56713;BME280;42589;45.536;9.032;2023-05-09T03:07:53;99935.03;;;44.12;16.38
56713;BME280;42589;45.536;9.032;2023-05-09T03:10:54;99936.41;;;45.05;15.45
56713;BME280;42589;45.536;9.032;2023-05-09T03:13:55;99931.78;;;44.86;16.12
56713;BME280;42589;45.536;9.032;2023-05-09T03:16:56;99933.00;;;45.56;15.22
56713;BME280;42589;45.536;9.032;2023-05-09T03:19:57;99940.19;;;45.53;15.09
56713;BME280;42589;45.536;9.032;2023-05-09T03:22:57;99937.91;;;44.95;15.80
56713;BME280;42589;45.536;9.032;2023-05-09T03:25:58;99940.34;;;44.70;15.80
56713;BME280;42589;45.536;9.032;2023-05-09T03:28:59;99943.84;;;45.57;15.02
56713;BME280;42589;45.536;9.032;2023-05-09T03:32:00;99942.56;;;45.51;15.08
56713;BME280;42589;45.536;9.032;2023-05-09T03:35:01;99936.44;;;45.08;15.43
56713;BME280;42589;45.536;9.032;2023-05-09T03:38:02;99931.00;;;44.89;15.68
56713;BME280;42589;45.536;9.032;2023-05-09T03:41:03;99923.09;;;44.68;15.69
56713;BME280;42589;45.536;9.032;2023-05-09T03:44:04;99913.94;;;43.49;17.17
56713;BME280;42589;45.536;9.032;2023-05-09T03:47:05;99912.16;;;44.59;15.68
56713;BME280;42589;45.536;9.032;2023-05-09T03:50:06;99913.88;;;45.31;15.34
56713;BME280;42589;45.536;9.032;2023-05-09T03:53:07;99924.28;;;43.25;17.23
56713;BME280;42589;45.536;9.032;2023-05-09T03:56:07;99922.72;;;45.00;15.96
56713;BME280;42589;45.536;9.032;2023-05-09T03:59:08;99920.66;;;44.36;16.13
56713;BME280;42589;45.536;9.032;2023-05-09T04:02:09;99912.78;;;43.96;16.52
56713;BME280;42589;45.536;9.032;2023-05-09T04:05:10;99916.09;;;44.81;15.79
56713;BME280;42589;45.536;9.032;2023-05-09T04:08:11;99909.84;;;45.29;15.36
56713;BME280;42589;45.536;9.032;2023-05-09T04:11:12;99917.25;;;44.77;15.60
56713;BME280;42589;45.536;9.032;2023-05-09T04:14:14;99924.75;;;44.42;15.54
56713;BME280;42589;45.536;9.032;2023-05-09T04:17:14;99920.78;;;45.78;14.67
56713;BME280;42589;45.536;9.032;2023-05-09T04:20:15;99927.66;;;44.76;15.71
56713;BME280;42589;45.536;9.032;2023-05-09T04:23:16;99928.16;;;43.83;16.67
56713;BME280;42589;45.536;9.032;2023-05-09T04:26:18;99924.03;;;44.49;15.99
56713;BME280;42589;45.536;9.032;2023-05-09T04:29:18;99931.69;;;44.25;16.28
56713;BME280;42589;45.536;9.032;2023-05-09T04:32:19;99937.22;;;45.39;15.34
56713;BME280;42589;45.536;9.032;2023-05-09T04:35:22;99930.69;;;46.10;14.69
56713;BME280;42589;45.536;9.032;2023-05-09T04:38:23;99935.09;;;44.38;16.21
56713;BME280;42589;45.536;9.032;2023-05-09T04:41:23;99926.88;;;44.79;15.64
56713;BME280;42589;45.536;9.032;2023-05-09T04:44:24;99931.25;;;46.26;14.73
56713;BME280;42589;45.536;9.032;2023-05-09T04:47:24;99941.50;;;45.29;15.23
56713;BME280;42589;45.536;9.032;2023-05-09T04:50:25;99926.91;;;43.80;16.33
56713;BME280;42589;45.536;9.032;2023-05-09T04:53:26;99929.41;;;45.55;15.13
56713;BME280;42589;45.536;9.032;2023-05-09T04:56:27;99936.63;;;44.09;16.32
56713;BME280;42589;45.536;9.032;2023-05-09T04:59:28;99934.38;;;45.35;15.32
56713;BME280;42589;45.536;9.032;2023-05-09T05:02:30;99939.25;;;45.83;14.91
56713;BME280;42589;45.536;9.032;2023-05-09T05:05:31;99927.00;;;45.57;15.14
56713;BME280;42589;45.536;9.032;2023-05-09T05:08:32;99935.94;;;44.16;16.63
56713;BME280;42589;45.536;9.032;2023-05-09T05:11:33;99941.84;;;45.58;15.71
56713;BME280;42589;45.536;9.032;2023-05-09T05:14:34;99941.50;;;45.29;15.49
56713;BME280;42589;45.536;9.032;2023-05-09T05:17:36;99941.94;;;42.91;17.40
56713;BME280;42589;45.536;9.032;2023-05-09T05:20:39;99939.38;;;45.15;16.12
56713;BME280;42589;45.536;9.032;2023-05-09T05:23:40;99933.06;;;42.02;18.48
56713;BME280;42589;45.536;9.032;2023-05-09T05:26:41;99943.84;;;43.06;17.15
56713;BME280;42589;45.536;9.032;2023-05-09T05:29:42;99942.38;;;43.74;16.76
56713;BME280;42589;45.536;9.032;2023-05-09T05:32:43;99936.31;;;43.68;16.76
56713;BME280;42589;45.536;9.032;2023-05-09T05:35:44;99941.56;;;43.73;16.37
56713;BME280;42589;45.536;9.032;2023-05-09T05:38:45;99952.44;;;44.24;15.89
56713;BME280;42589;45.536;9.032;2023-05-09T05:41:46;99943.06;;;43.25;16.46
56713;BME280;42589;45.536;9.032;2023-05-09T05:44:47;99934.00;;;42.93;17.10
56713;BME280;42589;45.536;9.032;2023-05-09T05:47:47;99945.72;;;44.29;16.22
56713;BME280;42589;45.536;9.032;2023-05-09T05:50:48;99943.78;;;44.86;15.61
56713;BME280;42589;45.536;9.032;2023-05-09T05:53:48;99940.19;;;44.86;15.42
56713;BME280;42589;45.536;9.032;2023-05-09T05:56:50;99936.84;;;43.35;16.65
56713;BME280;42589;45.536;9.032;2023-05-09T05:59:51;99939.00;;;45.17;15.22
56713;BME280;42589;45.536;9.032;2023-05-09T06:02:52;99931.81;;;43.64;16.19
56713;BME280;42589;45.536;9.032;2023-05-09T06:05:54;99922.44;;;43.52;16.41
56713;BME280;42589;45.536;9.032;2023-05-09T06:08:55;99932.41;;;44.45;15.68
56713;BME280;42589;45.536;9.032;2023-05-09T06:11:56;99920.03;;;42.57;16.65
56713;BME280;42589;45.536;9.032;2023-05-09T06:14:56;99928.53;;;43.81;15.75
56713;BME280;42589;45.536;9.032;2023-05-09T06:17:58;99926.84;;;43.76;15.82
56713;BME280;42589;45.536;9.032;2023-05-09T06:20:59;99929.19;;;43.32;16.33
56713;BME280;42589;45.536;9.032;2023-05-09T06:23:59;99929.03;;;43.44;16.43
56713;BME280;42589;45.536;9.032;2023-05-09T06:27:03;99929.66;;;45.09;14.48
56713;BME280;42589;45.536;9.032;2023-05-09T06:30:07;99940.84;;;43.76;15.52
56713;BME280;42589;45.536;9.032;2023-05-09T06:33:08;99938.41;;;45.04;14.59
56713;BME280;42589;45.536;9.032;2023-05-09T06:36:09;99927.22;;;43.98;15.44
56713;BME280;42589;45.536;9.032;2023-05-09T06:39:11;99931.09;;;45.67;14.08
56713;BME280;42589;45.536;9.032;2023-05-09T06:42:12;99951.34;;;43.83;15.79
56713;BME280;42589;45.536;9.032;2023-05-09T06:45:13;99939.50;;;43.08;15.73
56713;BME280;42589;45.536;9.032;2023-05-09T06:48:14;99951.75;;;44.84;14.98
56713;BME280;42589;45.536;9.032;2023-05-09T06:51:15;99943.09;;;44.66;14.84
56713;BME280;42589;45.536;9.032;2023-05-09T06:54:16;99946.94;;;45.11;14.37
56713;BME280;42589;45.536;9.032;2023-05-09T06:57:18;99946.50;;;44.79;14.93
56713;BME280;42589;45.536;9.032;2023-05-09T07:00:19;99944.50;;;46.29;13.50
56713;BME280;42589;45.536;9.032;2023-05-09T07:03:19;99948.78;;;46.12;13.54
56713;BME280;42589;45.536;9.032;2023-05-09T07:06:20;99932.78;;;42.07;16.66
56713;BME280;42589;45.536;9.032;2023-05-09T07:09:22;99939.31;;;44.29;15.16
56713;BME280;42589;45.536;9.032;2023-05-09T07:12:27;99932.69;;;42.19;16.89
56713;BME280;42589;45.536;9.032;2023-05-09T07:15:28;99934.88;;;45.85;13.93
56713;BME280;42589;45.536;9.032;2023-05-09T07:18:29;99940.13;;;47.01;13.23
56713;BME280;42589;45.536;9.032;2023-05-09T07:21:30;99929.41;;;45.22;14.43
56713;BME280;42589;45.536;9.032;2023-05-09T07:24:33;99931.22;;;45.07;14.70
56713;BME280;42589;45.536;9.032;2023-05-09T07:27:35;99933.06;;;43.89;15.01
56713;BME280;42589;45.536;9.032;2023-05-09T07:30:37;99922.34;;;45.01;14.38
56713;BME280;42589;45.536;9.032;2023-05-09T07:33:38;99923.03;;;45.25;14.52
56713;BME280;42589;45.536;9.032;2023-05-09T07:36:38;99914.91;;;45.16;14.56
56713;BME280;42589;45.536;9.032;2023-05-09T07:39:39;99925.63;;;46.29;14.08
56713;BME280;42589;45.536;9.032;2023-05-09T07:42:40;99919.00;;;47.93;12.91
56713;BME280;42589;45.536;9.032;2023-05-09T07:45:45;99923.34;;;46.49;13.67
56713;BME280;42589;45.536;9.032;2023-05-09T07:48:46;99913.00;;;46.05;14.33
56713;BME280;42589;45.536;9.032;2023-05-09T07:51:47;99911.28;;;45.87;14.20
56713;BME280;42589;45.536;9.032;2023-05-09T07:54:48;99907.50;;;46.23;14.25
56713;BME280;42589;45.536;9.032;2023-05-09T07:57:49;99903.34;;;45.55;14.49
56713;BME280;42589;45.536;9.032;2023-05-09T08:00:49;99903.09;;;45.74;14.26
56713;BME280;42589;45.536;9.032;2023-05-09T08:03:50;99899.84;;;44.98;14.93
56713;BME280;42589;45.536;9.032;2023-05-09T08:06:52;99897.78;;;44.08;15.21
56713;BME280;42589;45.536;9.032;2023-05-09T08:09:52;99905.03;;;44.65;14.79
56713;BME280;42589;45.536;9.032;2023-05-09T08:12:53;99908.78;;;47.10;13.18
56713;BME280;42589;45.536;9.032;2023-05-09T08:15:56;99905.69;;;47.47;12.81
56713;BME280;42589;45.536;9.032;2023-05-09T08:18:56;99903.16;;;47.06;12.95
56713;BME280;42589;45.536;9.032;2023-05-09T08:21:57;99887.06;;;47.07;13.02
56713;BME280;42589;45.536;9.032;2023-05-09T08:24:59;99901.28;;;48.14;12.21
56713;BME280;42589;45.536;9.032;2023-05-09T08:28:00;99891.94;;;45.85;13.37
56713;BME280;42589;45.536;9.032;2023-05-09T08:31:00;99895.19;;;44.75;14.46
56713;BME280;42589;45.536;9.032;2023-05-09T08:34:01;99890.44;;;45.95;13.50
56713;BME280;42589;45.536;9.032;2023-05-09T08:37:02;99894.31;;;48.62;11.99
56713;BME280;42589;45.536;9.032;2023-05-09T08:40:06;99888.72;;;48.54;11.77
56713;BME280;42589;45.536;9.032;2023-05-09T08:43:07;99881.78;;;46.18;13.12
56713;BME280;42589;45.536;9.032;2023-05-09T08:46:09;99884.00;;;49.77;11.24
56713;BME280;42589;45.536;9.032;2023-05-09T08:49:10;99876.59;;;46.23;13.12
56713;BME280;42589;45.536;9.032;2023-05-09T08:52:12;99880.66;;;45.78;13.11
56713;BME280;42589;45.536;9.032;2023-05-09T08:55:13;99877.16;;;44.46;14.28
56713;BME280;42589;45.536;9.032;2023-05-09T08:58:14;99878.09;;;44.87;13.93
56713;BME280;42589;45.536;9.032;2023-05-09T09:01:16;99879.13;;;47.73;12.42
56713;BME280;42589;45.536;9.032;2023-05-09T09:04:21;99879.59;;;46.56;12.79
56713;BME280;42589;45.536;9.032;2023-05-09T09:07:22;99877.53;;;48.01;11.97
56713;BME280;42589;45.536;9.032;2023-05-09T09:10:25;99870.81;;;45.13;14.13
56713;BME280;42589;45.536;9.032;2023-05-09T09:13:27;99875.44;;;47.19;12.42
56713;BME280;42589;45.536;9.032;2023-05-09T09:16:28;99866.22;;;45.35;13.67
56713;BME280;42589;45.536;9.032;2023-05-09T09:19:33;99873.69;;;46.75;12.50
56713;BME280;42589;45.536;9.032;2023-05-09T09:22:36;99871.47;;;47.41;12.19
56713;BME280;42589;45.536;9.032;2023-05-09T09:25:40;99862.06;;;46.11;13.00
56713;BME280;42589;45.536;9.032;2023-05-09T09:28:41;99867.81;;;47.16;12.44
56713;BME280;42589;45.536;9.032;2023-05-09T09:31:44;99865.47;;;46.38;12.58
56713;BME280;42589;45.536;9.032;2023-05-09T09:34:48;99854.78;;;46.65;12.49
56713;BME280;42589;45.536;9.032;2023-05-09T09:37:55;99857.75;;;48.36;11.77
56713;BME280;42589;45.536;9.032;2023-05-09T09:40:57;99870.31;;;47.82;12.04
56713;BME280;42589;45.536;9.032;2023-05-09T09:44:05;99864.25;;;49.73;10.77
56713;BME280;42589;45.536;9.032;2023-05-09T09:47:09;99850.69;;;45.89;13.31
56713;BME280;42589;45.536;9.032;2023-05-09T09:50:17;99853.38;;;45.75;13.37
56713;BME280;42589;45.536;9.032;2023-05-09T09:53:19;99850.97;;;47.95;12.25
56713;BME280;42589;45.536;9.032;2023-05-09T09:56:20;99851.34;;;47.25;12.48
56713;BME280;42589;45.536;9.032;2023-05-09T09:59:23;99853.84;;;50.08;10.72
56713;BME280;42589;45.536;9.032;2023-05-09T10:02:28;99849.72;;;48.31;11.53
56713;BME280;42589;45.536;9.032;2023-05-09T10:05:31;99852.88;;;46.17;12.46
56713;BME280;42589;45.536;9.032;2023-05-09T10:08:33;99840.53;;;49.67;10.72
56713;BME280;42589;45.536;9.032;2023-05-09T10:11:33;99845.34;;;47.91;11.92
56713;BME280;42589;45.536;9.032;2023-05-09T10:14:35;99825.09;;;45.50;13.30
56713;BME280;42589;45.536;9.032;2023-05-09T10:17:37;99831.91;;;46.63;12.78
56713;BME280;42589;45.536;9.032;2023-05-09T10:20:38;99828.06;;;49.02;11.10
56713;BME280;42589;45.536;9.032;2023-05-09T10:23:41;99831.06;;;48.66;11.69
56713;BME280;42589;45.536;9.032;2023-05-09T10:26:46;99825.91;;;48.54;11.70
56713;BME280;42589;45.536;9.032;2023-05-09T10:29:56;99824.06;;;48.96;10.79
56713;BME280;42589;45.536;9.032;2023-05-09T10:33:09;99819.19;;;49.03;10.98
56713;BME280;42589;45.536;9.032;2023-05-09T10:36:10;99818.53;;;48.74;11.17
56713;BME280;42589;45.536;9.032;2023-05-09T10:39:12;99819.16;;;48.19;11.16
56713;BME280;42589;45.536;9.032;2023-05-09T10:42:13;99806.00;;;49.42;11.21
56713;BME280;42589;45.536;9.032;2023-05-09T10:45:14;99794.72;;;49.42;11.12
56713;BME280;42589;45.536;9.032;2023-05-09T10:48:15;99803.28;;;52.04;9.52
56713;BME280;42589;45.536;9.032;2023-05-09T10:51:16;99801.50;;;51.19;10.10
56713;BME280;42589;45.536;9.032;2023-05-09T10:54:27;99805.00;;;51.78;9.84
56713;BME280;42589;45.536;9.032;2023-05-09T10:57:29;99801.97;;;50.87;10.25
56713;BME280;42589;45.536;9.032;2023-05-09T11:00:33;99786.81;;;49.71;10.94
56713;BME280;42589;45.536;9.032;2023-05-09T11:03:57;99774.59;;;50.80;10.03
56713;BME280;42589;45.536;9.032;2023-05-09T11:06:59;99772.56;;;47.50;12.33
56713;BME280;42589;45.536;9.032;2023-05-09T11:10:06;99774.94;;;50.55;10.51
56713;BME280;42589;45.536;9.032;2023-05-09T11:13:08;99763.66;;;46.87;12.54
56713;BME280;42589;45.536;9.032;2023-05-09T11:16:09;99769.66;;;50.57;11.06
56713;BME280;42589;45.536;9.032;2023-05-09T11:19:10;99762.88;;;52.19;9.45
56713;BME280;42589;45.536;9.032;2023-05-09T11:22:17;99750.63;;;50.61;10.19
56713;BME280;42589;45.536;9.032;2023-05-09T11:25:24;99752.38;;;51.06;10.04
56713;BME280;42589;45.536;9.032;2023-05-09T11:28:29;99746.25;;;50.84;10.83
56713;BME280;42589;45.536;9.032;2023-05-09T11:31:29;99750.41;;;51.73;9.90
56713;BME280;42589;45.536;9.032;2023-05-09T11:34:30;99731.84;;;51.49;10.30
56713;BME280;42589;45.536;9.032;2023-05-09T11:37:44;99719.25;;;48.34;12.05
56713;BME280;42589;45.536;9.032;2023-05-09T11:40:46;99726.25;;;48.75;12.01
56713;BME280;42589;45.536;9.032;2023-05-09T11:43:48;99723.38;;;49.38;11.65
56713;BME280;42589;45.536;9.032;2023-05-09T11:46:49;99719.19;;;49.53;11.28
56713;BME280;42589;45.536;9.032;2023-05-09T11:49:50;99708.50;;;50.09;10.94
56713;BME280;42589;45.536;9.032;2023-05-09T11:52:51;99703.09;;;51.50;9.94
56713;BME280;42589;45.536;9.032;2023-05-09T11:55:52;99698.16;;;47.26;12.29
56713;BME280;42589;45.536;9.032;2023-05-09T11:58:54;99699.28;;;49.26;11.18
56713;BME280;42589;45.536;9.032;2023-05-09T12:01:54;99702.56;;;46.84;12.68
56713;BME280;42589;45.536;9.032;2023-05-09T12:04:55;99701.56;;;50.14;10.97
56713;BME280;42589;45.536;9.032;2023-05-09T12:08:01;99691.88;;;50.15;10.69
56713;BME280;42589;45.536;9.032;2023-05-09T12:11:08;99691.16;;;50.92;10.67
56713;BME280;42589;45.536;9.032;2023-05-09T12:14:09;99685.22;;;48.70;11.90
56713;BME280;42589;45.536;9.032;2023-05-09T12:17:10;99676.03;;;46.57;12.98
56713;BME280;42589;45.536;9.032;2023-05-09T12:20:11;99674.44;;;49.52;10.98
56713;BME280;42589;45.536;9.032;2023-05-09T12:23:12;99681.50;;;51.37;10.15
56713;BME280;42589;45.536;9.032;2023-05-09T12:26:14;99665.50;;;50.79;10.64
56713;BME280;42589;45.536;9.032;2023-05-09T12:29:16;99669.22;;;51.87;9.96
56713;BME280;42589;45.536;9.032;2023-05-09T12:32:17;99662.47;;;48.36;12.44
56713;BME280;42589;45.536;9.032;2023-05-09T12:35:19;99667.47;;;49.22;11.41
56713;BME280;42589;45.536;9.032;2023-05-09T12:38:21;99653.44;;;52.42;9.73
56713;BME280;42589;45.536;9.032;2023-05-09T12:41:22;99661.25;;;51.38;9.87
56713;BME280;42589;45.536;9.032;2023-05-09T12:44:24;99656.44;;;53.17;9.39
56713;BME280;42589;45.536;9.032;2023-05-09T12:47:30;99650.50;;;52.62;9.80
56713;BME280;42589;45.536;9.032;2023-05-09T12:50:32;99642.94;;;49.15;11.45
56713;BME280;42589;45.536;9.032;2023-05-09T12:53:37;99637.25;;;51.86;10.09
56713;BME280;42589;45.536;9.032;2023-05-09T12:56:38;99637.59;;;50.54;10.88
56713;BME280;42589;45.536;9.032;2023-05-09T12:59:42;99624.59;;;49.72;11.92
56713;BME280;42589;45.536;9.032;2023-05-09T13:02:43;99616.31;;;48.05;12.39
56713;BME280;42589;45.536;9.032;2023-05-09T13:05:53;99617.59;;;49.84;11.16
56713;BME280;42589;45.536;9.032;2023-05-09T13:09:01;99612.13;;;49.69;11.37
56713;BME280;42589;45.536;9.032;2023-05-09T13:12:04;99614.97;;;51.05;10.35
56713;BME280;42589;45.536;9.032;2023-05-09T13:15:08;99600.94;;;49.93;11.25
56713;BME280;42589;45.536;9.032;2023-05-09T13:18:09;99586.38;;;48.32;12.25
56713;BME280;42589;45.536;9.032;2023-05-09T13:21:10;99586.25;;;51.66;10.25
56713;BME280;42589;45.536;9.032;2023-05-09T13:24:11;99582.38;;;48.86;11.84
56713;BME280;42589;45.536;9.032;2023-05-09T13:27:12;99571.00;;;47.78;12.50
56713;BME280;42589;45.536;9.032;2023-05-09T13:30:12;99576.44;;;49.14;11.79
56713;BME280;42589;45.536;9.032;2023-05-09T13:33:14;99576.06;;;48.15;12.06
56713;BME280;42589;45.536;9.032;2023-05-09T13:36:14;99568.06;;;49.03;11.04
56713;BME280;42589;45.536;9.032;2023-05-09T13:39:15;99569.59;;;50.38;10.66
56713;BME280;42589;45.536;9.032;2023-05-09T13:42:16;99554.59;;;49.56;10.98
56713;BME280;42589;45.536;9.032;2023-05-09T13:45:17;99562.09;;;50.28;10.79
56713;BME280;42589;45.536;9.032;2023-05-09T13:48:18;99547.59;;;49.68;11.13
56713;BME280;42589;45.536;9.032;2023-05-09T13:51:19;99550.66;;;49.81;10.85
56713;BME280;42589;45.536;9.032;2023-05-09T13:54:21;99536.28;;;48.58;11.92
56713;BME280;42589;45.536;9.032;2023-05-09T13:57:22;99533.41;;;48.13;11.73
56713;BME280;42589;45.536;9.032;2023-05-09T14:00:23;99525.22;;;47.59;12.44
56713;BME280;42589;45.536;9.032;2023-05-09T14:03:25;99522.63;;;46.59;12.48
56713;BME280;42589;45.536;9.032;2023-05-09T14:06:26;99522.13;;;47.25;12.00
56713;BME280;42589;45.536;9.032;2023-05-09T14:09:28;99532.91;;;50.34;10.73
56713;BME280;42589;45.536;9.032;2023-05-09T14:12:29;99524.38;;;50.11;10.99
56713;BME280;42589;45.536;9.032;2023-05-09T14:15:29;99521.63;;;51.97;10.17
56713;BME280;42589;45.536;9.032;2023-05-09T14:18:34;99521.56;;;52.66;9.32
56713;BME280;42589;45.536;9.032;2023-05-09T14:21:35;99520.63;;;51.31;10.59
56713;BME280;42589;45.536;9.032;2023-05-09T14:24:36;99513.00;;;48.50;11.65
56713;BME280;42589;45.536;9.032;2023-05-09T14:27:37;99508.19;;;48.47;12.14
56713;BME280;42589;45.536;9.032;2023-05-09T14:30:37;99506.75;;;47.55;12.12
56713;BME280;42589;45.536;9.032;2023-05-09T14:33:38;99507.81;;;47.82;12.14
56713;BME280;42589;45.536;9.032;2023-05-09T14:36:39;99505.47;;;51.02;10.26
56713;BME280;42589;45.536;9.032;2023-05-09T14:39:40;99503.09;;;51.57;9.84
56713;BME280;42589;45.536;9.032;2023-05-09T14:42:41;99506.97;;;51.26;10.07
56713;BME280;42589;45.536;9.032;2023-05-09T14:45:43;99490.25;;;48.68;11.86
56713;BME280;42589;45.536;9.032;2023-05-09T14:48:44;99493.97;;;48.99;11.72
56713;BME280;42589;45.536;9.032;2023-05-09T14:51:46;99480.25;;;48.11;12.06
56713;BME280;42589;45.536;9.032;2023-05-09T14:54:46;99477.03;;;49.34;11.43
56713;BME280;42589;45.536;9.032;2023-05-09T14:57:47;99486.47;;;47.85;12.28
56713;BME280;42589;45.536;9.032;2023-05-09T15:00:48;99483.00;;;49.70;11.42
56713;BME280;42589;45.536;9.032;2023-05-09T15:03:49;99475.69;;;49.42;11.55
56713;BME280;42589;45.536;9.032;2023-05-09T15:06:50;99473.09;;;47.19;12.48
56713;BME280;42589;45.536;9.032;2023-05-09T15:09:50;99473.84;;;48.60;11.59
56713;BME280;42589;45.536;9.032;2023-05-09T15:12:51;99471.84;;;48.56;11.77
56713;BME280;42589;45.536;9.032;2023-05-09T15:15:52;99464.28;;;49.80;11.17
56713;BME280;42589;45.536;9.032;2023-05-09T15:18:52;99457.59;;;46.39;13.00
56713;BME280;42589;45.536;9.032;2023-05-09T15:21:53;99455.75;;;47.38;12.76
56713;BME280;42589;45.536;9.032;2023-05-09T15:24:53;99455.28;;;47.51;12.55
56713;BME280;42589;45.536;9.032;2023-05-09T15:27:54;99453.81;;;47.21;12.46
56713;BME280;42589;45.536;9.032;2023-05-09T15:30:56;99451.69;;;47.50;12.19
56713;BME280;42589;45.536;9.032;2023-05-09T15:33:59;99447.53;;;45.92;13.44
56713;BME280;42589;45.536;9.032;2023-05-09T15:37:00;99446.59;;;45.41;13.83
56713;BME280;42589;45.536;9.032;2023-05-09T15:40:01;99447.91;;;45.72;13.69
56713;BME280;42589;45.536;9.032;2023-05-09T15:43:02;99442.72;;;46.21;13.43
56713;BME280;42589;45.536;9.032;2023-05-09T15:46:04;99441.03;;;48.35;11.79
56713;BME280;42589;45.536;9.032;2023-05-09T15:49:04;99436.63;;;46.90;12.61
56713;BME280;42589;45.536;9.032;2023-05-09T15:52:05;99437.81;;;48.33;11.99
56713;BME280;42589;45.536;9.032;2023-05-09T15:55:07;99431.50;;;46.10;13.11
56713;BME280;42589;45.536;9.032;2023-05-09T15:58:11;99428.78;;;47.44;12.49
56713;BME280;42589;45.536;9.032;2023-05-09T16:01:13;99436.53;;;48.41;12.01
56713;BME280;42589;45.536;9.032;2023-05-09T16:04:14;99432.84;;;48.51;11.67
56713;BME280;42589;45.536;9.032;2023-05-09T16:07:16;99427.09;;;46.13;13.23
56713;BME280;42589;45.536;9.032;2023-05-09T16:10:18;99423.44;;;45.80;13.16